Terminal Aerodrome Forecast
Issued by NWS

Home | Current Version | Previous Version | Text Only | Print | Product List | Glossary On
Versions: 1 2 3 4 5 6 7 8 9 10 11 12 13 14 15 16 17 18 19 20 21 22 23 24
000
FTUS41 KPBZ 020239 AAA
TAFDUJ
TAF AMD
KDUJ 020239Z 0203/0224 00000KT 1/2SM FG OVC003
     FM020700 VRB03KT 3SM -SHRA OVC003
     FM021100 18005KT 5SM -SHRA OVC003
     FM021600 27008KT P6SM OVC025
     FM021900 28011KT P6SM BKN040=

USA.gov is the U.S. government's official web portal to all federal, state and local government web resources and services.